createdAt,value
2018-02-03T00:00:22.254Z,6.30
2018-02-03T00:01:22.364Z,6.10
2018-02-03T00:02:22.196Z,6.30
2018-02-03T00:03:22.275Z,6.10
2018-02-03T00:04:22.138Z,6.60
2018-02-03T00:05:22.291Z,6.00
2018-02-03T00:06:22.079Z,6.20
2018-02-03T00:07:22.201Z,6.30
2018-02-03T00:08:22.025Z,6.30
2018-02-03T00:09:22.126Z,6.30
2018-02-03T00:10:21.965Z,6.50
2018-02-03T00:11:22.176Z,6.10
2018-02-03T00:12:21.908Z,6.40
2018-02-03T00:13:22.050Z,6.20
2018-02-03T00:14:21.849Z,6.50
2018-02-03T00:15:21.948Z,5.90
2018-02-03T00:16:21.788Z,6.40
2018-02-03T00:17:21.961Z,6.40
2018-02-03T00:18:21.733Z,6.20
2018-02-03T00:19:21.883Z,6.00
2018-02-03T00:20:21.675Z,6.70
2018-02-03T00:21:21.790Z,6.10
2018-02-03T00:22:21.617Z,6.50
2018-02-03T00:23:21.696Z,6.30
2018-02-03T00:24:21.560Z,6.40
2018-02-03T00:25:21.710Z,6.70
2018-02-03T00:26:21.501Z,6.40
2018-02-03T00:27:21.626Z,6.50
2018-02-03T00:28:21.443Z,6.50
2018-02-03T00:29:21.537Z,6.60
2018-02-03T00:30:21.386Z,6.80
2018-02-03T00:31:21.546Z,6.00
2018-02-03T00:32:21.327Z,5.60
2018-02-03T00:33:21.472Z,6.50
2018-02-03T00:34:21.273Z,6.40
2018-02-03T00:35:21.374Z,6.30
2018-02-03T00:36:21.211Z,6.20
2018-02-03T00:37:21.388Z,6.60
2018-02-03T00:38:21.148Z,6.10
2018-02-03T00:39:21.345Z,6.40
2018-02-03T00:40:21.111Z,6.60
2018-02-03T00:41:21.207Z,6.30
2018-02-03T00:42:21.036Z,6.50
2018-02-03T00:43:21.221Z,6.50
2018-02-03T00:44:20.977Z,6.10
2018-02-03T00:45:21.131Z,6.30
2018-02-03T00:46:20.925Z,5.90
2018-02-03T00:47:21.044Z,5.80
2018-02-03T00:48:20.864Z,5.70
2018-02-03T00:49:20.957Z,6.20
2018-02-03T00:50:20.803Z,5.80
2018-02-03T00:51:20.970Z,6.20
2018-02-03T00:52:20.747Z,6.00
2018-02-03T00:53:20.776Z,6.20
2018-02-03T00:54:20.691Z,6.10
2018-02-03T00:55:20.738Z,5.80
2018-02-03T00:56:20.634Z,6.30
2018-02-03T00:57:20.909Z,6.40
2018-02-03T00:58:20.573Z,6.30
2018-02-03T00:59:20.616Z,6.40
2018-02-03T01:00:20.517Z,6.50
2018-02-03T01:01:20.526Z,6.30
2018-02-03T01:02:20.454Z,6.30
2018-02-03T01:03:20.428Z,6.20
2018-02-03T01:04:20.443Z,6.60
2018-02-03T01:05:20.370Z,6.30
2018-02-03T01:06:20.357Z,6.70
2018-02-03T01:07:20.311Z,6.00
2018-02-03T01:08:20.372Z,6.10
2018-02-03T01:09:20.260Z,6.10
2018-02-03T01:10:20.284Z,6.60
2018-02-03T01:11:20.208Z,6.50
2018-02-03T01:12:20.193Z,6.80
2018-02-03T01:13:20.136Z,6.50
2018-02-03T01:14:20.209Z,7.00
2018-02-03T01:15:20.082Z,6.10
2018-02-03T01:16:20.119Z,6.30
2018-02-03T01:17:20.023Z,6.20
2018-02-03T01:18:20.032Z,6.60
2018-02-03T01:19:19.963Z,6.10
2018-02-03T01:20:20.046Z,7.00
2018-02-03T01:21:19.909Z,6.70
2018-02-03T01:22:19.957Z,6.50
2018-02-03T01:23:19.849Z,5.90
2018-02-03T01:24:19.869Z,6.10
2018-02-03T01:25:19.793Z,6.50
2018-02-03T01:26:19.778Z,6.40
2018-02-03T01:27:19.730Z,6.50
2018-02-03T01:28:19.785Z,6.50
2018-02-03T01:29:19.675Z,6.90
2018-02-03T01:30:19.705Z,6.80
2018-02-03T01:31:19.617Z,7.20
2018-02-03T01:32:19.616Z,6.60
2018-02-03T01:33:19.559Z,6.70
2018-02-03T01:34:19.630Z,7.00
2018-02-03T01:35:19.493Z,6.80
2018-02-03T01:36:19.542Z,6.70
2018-02-03T01:37:19.454Z,6.90
2018-02-03T01:38:19.453Z,6.70
2018-02-03T01:39:19.378Z,7.60
2018-02-03T01:40:19.467Z,7.10
2018-02-03T01:41:19.326Z,7.30
2018-02-03T01:42:19.380Z,7.20
2018-02-03T01:43:19.266Z,6.90
2018-02-03T01:44:19.290Z,7.60
2018-02-03T01:45:19.211Z,6.50
2018-02-03T01:46:19.214Z,7.20
2018-02-03T01:47:19.150Z,6.70
2018-02-03T01:48:19.215Z,6.60
2018-02-03T01:49:19.102Z,6.70
2018-02-03T01:50:19.128Z,6.90
2018-02-03T01:51:19.033Z,7.30
2018-02-03T01:52:19.038Z,7.00
2018-02-03T01:53:18.974Z,7.20
2018-02-03T01:54:19.052Z,7.20
2018-02-03T01:55:18.938Z,7.10
2018-02-03T01:56:18.964Z,6.50
2018-02-03T01:57:18.858Z,6.80
2018-02-03T01:58:18.875Z,6.90
2018-02-03T01:59:18.799Z,6.80
2018-02-03T02:00:18.787Z,7.10
2018-02-03T02:01:18.740Z,6.70
2018-02-03T02:02:18.802Z,6.80
2018-02-03T02:03:18.684Z,6.90
2018-02-03T02:04:18.712Z,7.20
2018-02-03T02:05:18.623Z,7.00
2018-02-03T02:06:18.624Z,6.90
2018-02-03T02:07:18.563Z,7.10
2018-02-03T02:08:18.638Z,6.90
2018-02-03T02:09:18.508Z,7.20
2018-02-03T02:10:18.577Z,7.00
2018-02-03T02:11:18.452Z,7.20
2018-02-03T02:12:18.455Z,6.50
2018-02-03T02:13:18.393Z,6.60
2018-02-03T02:14:18.372Z,7.40
2018-02-03T02:15:18.336Z,6.60
2018-02-03T02:16:18.387Z,7.30
2018-02-03T02:17:18.274Z,6.90
2018-02-03T02:18:18.297Z,6.70
2018-02-03T02:19:18.214Z,7.00
2018-02-03T02:20:18.213Z,7.00
2018-02-03T02:21:18.158Z,6.80
2018-02-03T02:22:18.226Z,6.60
2018-02-03T02:23:18.096Z,6.80
2018-02-03T02:24:18.137Z,6.80
2018-02-03T02:25:18.040Z,6.80
2018-02-03T02:26:18.046Z,7.20
2018-02-03T02:27:17.980Z,7.00
2018-02-03T02:28:18.061Z,7.30
2018-02-03T02:29:17.928Z,7.70
2018-02-03T02:30:17.974Z,6.70
2018-02-03T02:31:17.872Z,7.70
2018-02-03T02:32:17.883Z,7.90
2018-02-03T02:33:17.806Z,7.90
2018-02-03T02:34:17.796Z,8.10
2018-02-03T02:35:17.746Z,8.10
2018-02-03T02:36:17.810Z,7.60
2018-02-03T02:37:17.689Z,8.30
2018-02-03T02:38:17.722Z,8.20
2018-02-03T02:39:17.630Z,7.80
2018-02-03T02:40:17.632Z,8.10
2018-02-03T02:41:17.582Z,8.60
2018-02-03T02:42:17.647Z,8.00
2018-02-03T02:43:17.512Z,8.60
2018-02-03T02:44:17.557Z,8.40
2018-02-03T02:45:17.460Z,8.10
2018-02-03T02:46:17.467Z,8.40
2018-02-03T02:47:17.393Z,8.20
2018-02-03T02:48:17.381Z,8.80
2018-02-03T02:49:17.338Z,8.50
2018-02-03T02:50:17.396Z,8.90
2018-02-03T02:51:17.279Z,8.40
2018-02-03T02:52:17.308Z,8.60
2018-02-03T02:53:17.223Z,9.50
2018-02-03T02:54:17.221Z,8.90
2018-02-03T02:55:17.165Z,8.40
2018-02-03T02:56:17.245Z,9.10
2018-02-03T02:57:17.109Z,8.80
2018-02-03T02:58:17.142Z,8.80
2018-02-03T02:59:17.044Z,9.60
2018-02-03T03:00:17.055Z,9.30
2018-02-03T03:01:16.981Z,9.00
2018-02-03T03:02:17.068Z,8.90
2018-02-03T03:03:16.943Z,8.90
2018-02-03T03:04:16.981Z,9.30
2018-02-03T03:05:16.869Z,9.00
2018-02-03T03:06:16.890Z,8.90
2018-02-03T03:07:16.806Z,8.60
2018-02-03T03:08:16.803Z,8.60
2018-02-03T03:09:16.752Z,8.70
2018-02-03T03:10:16.817Z,9.50
2018-02-03T03:11:16.694Z,8.80
2018-02-03T03:12:16.728Z,9.10
2018-02-03T03:13:16.634Z,8.70
2018-02-03T03:14:16.630Z,9.50
2018-02-03T03:15:16.577Z,8.80
2018-02-03T03:16:16.653Z,8.50
2018-02-03T03:17:16.517Z,8.50
2018-02-03T03:18:16.564Z,8.60
2018-02-03T03:19:16.455Z,8.50
2018-02-03T03:20:16.477Z,8.80
2018-02-03T03:21:16.386Z,8.70
2018-02-03T03:22:16.383Z,8.50
2018-02-03T03:23:16.350Z,9.40
2018-02-03T03:24:16.403Z,8.80
2018-02-03T03:25:16.280Z,8.30
2018-02-03T03:26:16.316Z,9.10
2018-02-03T03:27:16.224Z,8.60
2018-02-03T03:28:16.225Z,9.20
2018-02-03T03:29:16.161Z,8.50
2018-02-03T03:30:16.240Z,8.50
2018-02-03T03:31:16.103Z,8.40
2018-02-03T03:32:16.150Z,8.50
2018-02-03T03:33:16.042Z,7.90
2018-02-03T03:34:16.061Z,7.80
2018-02-03T03:35:15.985Z,8.60
2018-02-03T03:36:15.973Z,8.10
2018-02-03T03:37:15.926Z,8.40
2018-02-03T03:38:15.983Z,8.20
2018-02-03T03:39:15.862Z,8.30
2018-02-03T03:40:15.899Z,8.30
2018-02-03T03:41:15.807Z,8.80
2018-02-03T03:42:15.812Z,8.20
2018-02-03T03:43:15.747Z,8.30
2018-02-03T03:44:15.824Z,8.90
2018-02-03T03:45:15.704Z,8.20
2018-02-03T03:46:15.741Z,8.00
2018-02-03T03:47:15.629Z,8.60
2018-02-03T03:48:15.652Z,8.20
2018-02-03T03:49:15.572Z,8.40
2018-02-03T03:50:15.581Z,8.00
2018-02-03T03:51:15.511Z,7.90
2018-02-03T03:52:15.599Z,7.80
2018-02-03T03:53:15.453Z,7.60
2018-02-03T03:54:15.491Z,7.20
2018-02-03T03:55:15.392Z,7.60
2018-02-03T03:56:15.399Z,7.70
2018-02-03T03:57:15.333Z,7.60
2018-02-03T03:58:15.418Z,7.60
2018-02-03T03:59:15.275Z,7.30
2018-02-03T04:00:15.323Z,7.80
2018-02-03T04:01:15.217Z,8.10
2018-02-03T04:02:15.233Z,7.30
2018-02-03T04:03:15.149Z,7.80
2018-02-03T04:04:15.196Z,7.70
2018-02-03T04:05:15.097Z,7.30
2018-02-03T04:06:15.160Z,7.20
2018-02-03T04:07:15.034Z,7.30
2018-02-03T04:08:15.073Z,7.40
2018-02-03T04:09:14.978Z,7.50
2018-02-03T04:10:14.982Z,7.40
2018-02-03T04:11:14.919Z,7.80
2018-02-03T04:12:14.996Z,7.30
2018-02-03T04:13:14.858Z,7.70
2018-02-03T04:14:14.910Z,8.10
2018-02-03T04:15:14.802Z,7.70
2018-02-03T04:16:14.831Z,8.20
2018-02-03T04:17:14.745Z,7.40
2018-02-03T04:18:14.731Z,7.50
2018-02-03T04:19:14.681Z,7.90
2018-02-03T04:20:14.742Z,7.80
2018-02-03T04:21:14.633Z,7.80
2018-02-03T04:22:14.655Z,7.60
2018-02-03T04:23:14.555Z,8.00
2018-02-03T04:24:14.565Z,7.80
2018-02-03T04:25:14.503Z,8.20
2018-02-03T04:26:14.580Z,8.10
2018-02-03T04:27:14.446Z,8.80
2018-02-03T04:28:14.494Z,8.20
2018-02-03T04:29:14.386Z,8.00
2018-02-03T04:30:14.403Z,8.90
2018-02-03T04:31:14.328Z,8.60
2018-02-03T04:32:14.314Z,8.80
2018-02-03T04:33:14.265Z,9.10
2018-02-03T04:34:14.330Z,8.40
2018-02-03T04:35:14.207Z,9.10
2018-02-03T04:36:14.250Z,9.50
2018-02-03T04:37:14.148Z,8.90
2018-02-03T04:38:14.154Z,9.00
2018-02-03T04:39:14.090Z,9.00
2018-02-03T04:40:14.167Z,9.30
2018-02-03T04:41:14.030Z,9.70
2018-02-03T04:42:14.079Z,9.20
2018-02-03T04:43:13.961Z,9.60
2018-02-03T04:44:13.990Z,9.30
2018-02-03T04:45:13.942Z,9.60
2018-02-03T04:46:13.902Z,9.00
2018-02-03T04:47:13.854Z,8.90
2018-02-03T04:48:13.916Z,9.70
2018-02-03T04:49:13.793Z,9.00
2018-02-03T04:50:13.824Z,9.70
2018-02-03T04:51:13.732Z,9.70
2018-02-03T04:52:13.737Z,9.30
2018-02-03T04:53:13.673Z,9.50
2018-02-03T04:54:13.753Z,9.90
2018-02-03T04:55:13.616Z,10.10
2018-02-03T04:56:13.663Z,9.60
2018-02-03T04:57:13.555Z,9.90
2018-02-03T04:58:13.585Z,9.80
2018-02-03T04:59:13.497Z,9.40
2018-02-03T05:00:13.505Z,9.60
2018-02-03T05:01:13.437Z,10.30
2018-02-03T05:02:13.505Z,10.10
2018-02-03T05:03:13.381Z,10.70
2018-02-03T05:04:13.414Z,10.40
2018-02-03T05:05:13.314Z,10.70
2018-02-03T05:06:13.327Z,10.40
2018-02-03T05:07:13.258Z,10.40
2018-02-03T05:08:13.340Z,10.80
2018-02-03T05:09:13.202Z,11.00
2018-02-03T05:10:13.250Z,11.00
2018-02-03T05:11:13.139Z,11.20
2018-02-03T05:12:13.158Z,11.30
2018-02-03T05:13:13.081Z,11.00
2018-02-03T05:14:13.072Z,12.00
2018-02-03T05:15:13.021Z,11.30
2018-02-03T05:16:13.088Z,11.70
2018-02-03T05:17:12.960Z,11.50
2018-02-03T05:18:12.986Z,12.00
2018-02-03T05:19:12.903Z,11.80
2018-02-03T05:20:12.911Z,12.00
2018-02-03T05:21:12.842Z,12.70
2018-02-03T05:22:12.922Z,12.50
2018-02-03T05:23:12.782Z,12.00
2018-02-03T05:24:12.838Z,12.20
2018-02-03T05:25:12.724Z,11.50
2018-02-03T05:26:12.748Z,12.30
2018-02-03T05:27:12.662Z,12.60
2018-02-03T05:28:12.655Z,12.10
2018-02-03T05:29:12.603Z,12.40
2018-02-03T05:30:12.676Z,11.90
2018-02-03T05:31:12.542Z,12.10
2018-02-03T05:32:12.581Z,11.90
2018-02-03T05:33:12.484Z,12.80
2018-02-03T05:34:12.494Z,12.30
2018-02-03T05:35:12.422Z,12.40
2018-02-03T05:36:12.509Z,12.50
2018-02-03T05:37:12.397Z,12.10
2018-02-03T05:38:12.421Z,12.90
2018-02-03T05:39:12.304Z,12.00
2018-02-03T05:40:12.325Z,12.70
2018-02-03T05:41:12.242Z,12.20
2018-02-03T05:42:12.241Z,12.60
2018-02-03T05:43:12.182Z,12.40
2018-02-03T05:44:12.258Z,12.70
2018-02-03T05:45:12.123Z,13.10
2018-02-03T05:46:12.165Z,12.10
2018-02-03T05:47:12.065Z,12.60
2018-02-03T05:48:12.081Z,13.10
2018-02-03T05:49:12.009Z,13.10
2018-02-03T05:50:11.991Z,13.30
2018-02-03T05:51:11.943Z,12.70
2018-02-03T05:52:12.004Z,13.20
2018-02-03T05:53:11.881Z,13.20
2018-02-03T05:54:11.917Z,12.90
2018-02-03T05:55:11.820Z,13.50
2018-02-03T05:56:11.827Z,13.60
2018-02-03T05:57:11.759Z,13.10
2018-02-03T05:58:11.844Z,12.90
2018-02-03T05:59:11.699Z,12.70
2018-02-03T06:00:11.769Z,12.50
2018-02-03T06:01:11.640Z,12.80
2018-02-03T06:02:11.670Z,12.20
2018-02-03T06:03:11.584Z,13.40
2018-02-03T06:04:11.580Z,12.40
2018-02-03T06:05:11.519Z,12.20
2018-02-03T06:06:11.591Z,12.90
2018-02-03T06:07:11.460Z,13.10
2018-02-03T06:08:11.503Z,12.80
2018-02-03T06:09:11.406Z,12.70
2018-02-03T06:10:11.413Z,12.70
2018-02-03T06:11:11.336Z,12.70
2018-02-03T06:12:11.325Z,13.70
2018-02-03T06:13:11.280Z,13.70
2018-02-03T06:14:11.342Z,14.10
2018-02-03T06:15:11.219Z,14.00
2018-02-03T06:16:11.250Z,13.70
2018-02-03T06:17:11.167Z,13.80
2018-02-03T06:18:11.161Z,14.30
2018-02-03T06:19:11.098Z,14.50
2018-02-03T06:20:11.174Z,15.00
2018-02-03T06:21:11.040Z,14.70
2018-02-03T06:22:11.089Z,15.60
2018-02-03T06:23:10.976Z,14.40
2018-02-03T06:24:10.998Z,14.90
2018-02-03T06:25:10.921Z,15.40
2018-02-03T06:26:10.907Z,15.70
2018-02-03T06:27:10.905Z,15.00
2018-02-03T06:28:10.924Z,15.40
2018-02-03T06:29:10.795Z,15.10
2018-02-03T06:30:10.833Z,16.10
2018-02-03T06:31:10.738Z,16.10
2018-02-03T06:32:10.748Z,15.10
2018-02-03T06:33:10.675Z,15.70
2018-02-03T06:34:10.656Z,16.70
2018-02-03T06:35:10.614Z,16.30
2018-02-03T06:36:10.671Z,15.70
2018-02-03T06:37:10.556Z,16.10
2018-02-03T06:38:10.582Z,16.70
2018-02-03T06:39:10.494Z,16.30
2018-02-03T06:40:10.488Z,16.90
2018-02-03T06:41:10.443Z,16.80
2018-02-03T06:42:10.511Z,15.70
2018-02-03T06:43:10.371Z,16.40
2018-02-03T06:44:10.420Z,16.80
2018-02-03T06:45:10.311Z,16.60
2018-02-03T06:46:10.330Z,16.30
2018-02-03T06:47:10.249Z,16.40
2018-02-03T06:48:10.243Z,17.10
2018-02-03T06:49:10.182Z,16.50
2018-02-03T06:50:10.260Z,16.80
2018-02-03T06:51:10.129Z,17.80
2018-02-03T06:52:10.167Z,16.50
2018-02-03T06:53:10.068Z,18.60
2018-02-03T06:54:10.079Z,18.00
2018-02-03T06:55:10.006Z,17.60
2018-02-03T06:56:10.094Z,18.90
2018-02-03T06:57:09.950Z,18.60
2018-02-03T06:58:10.005Z,19.10
2018-02-03T06:59:09.884Z,19.70
2018-02-03T07:00:09.916Z,19.60
2018-02-03T07:01:09.827Z,20.00
2018-02-03T07:02:09.835Z,21.00
2018-02-03T07:03:09.764Z,21.80
2018-02-03T07:04:09.836Z,22.40
2018-02-03T07:05:09.705Z,21.00
2018-02-03T07:06:09.753Z,22.40
2018-02-03T07:07:09.644Z,22.50
2018-02-03T07:08:10.755Z,22.70
2018-02-03T07:09:09.578Z,23.20
2018-02-03T07:10:09.576Z,22.60
2018-02-03T07:11:09.519Z,23.00
2018-02-03T07:12:09.589Z,23.10
2018-02-03T07:13:09.461Z,24.10
2018-02-03T07:14:09.502Z,23.60
2018-02-03T07:15:09.397Z,23.30
2018-02-03T07:16:09.412Z,24.20
2018-02-03T07:17:09.337Z,25.70
2018-02-03T07:18:09.425Z,25.40
2018-02-03T07:19:09.274Z,26.40
2018-02-03T07:20:09.338Z,27.70
2018-02-03T07:21:09.214Z,28.90
2018-02-03T07:22:09.243Z,29.30
2018-02-03T07:23:09.150Z,29.80
2018-02-03T07:24:09.161Z,29.90
2018-02-03T07:25:09.089Z,29.90
2018-02-03T07:26:09.074Z,30.90
2018-02-03T07:27:09.033Z,33.60
2018-02-03T07:28:09.085Z,34.20
2018-02-03T07:29:08.972Z,36.20
2018-02-03T07:30:08.998Z,38.00
2018-02-03T07:31:08.916Z,39.00
2018-02-03T07:32:08.924Z,39.70
2018-02-03T07:33:08.846Z,42.30
2018-02-03T07:34:08.923Z,43.10
2018-02-03T07:35:08.782Z,43.60
2018-02-03T07:36:08.832Z,43.90
2018-02-03T07:37:08.719Z,42.20
2018-02-03T07:38:08.747Z,42.00
2018-02-03T07:39:08.657Z,40.60
2018-02-03T07:40:08.658Z,39.10
2018-02-03T07:41:08.597Z,39.10
2018-02-03T07:42:08.689Z,38.80
2018-02-03T07:43:08.535Z,39.50
2018-02-03T07:44:08.582Z,38.90
2018-02-03T07:45:08.471Z,37.20
2018-02-03T07:46:08.494Z,37.00
2018-02-03T07:47:08.408Z,35.20
2018-02-03T07:48:08.407Z,36.70
2018-02-03T07:49:08.336Z,34.50
2018-02-03T07:50:08.430Z,34.50
2018-02-03T07:51:08.291Z,34.70
2018-02-03T07:52:08.335Z,32.90
2018-02-03T07:53:08.224Z,33.70
2018-02-03T07:54:08.245Z,33.60
2018-02-03T07:55:08.159Z,32.90
2018-02-03T07:56:08.158Z,32.80
2018-02-03T07:57:08.096Z,32.70
2018-02-03T07:58:08.174Z,32.30
2018-02-03T07:59:08.035Z,32.90
2018-02-03T08:00:08.081Z,33.30
2018-02-03T08:01:07.973Z,35.50
2018-02-03T08:02:07.998Z,34.30
2018-02-03T08:03:07.911Z,34.60
2018-02-03T08:04:07.905Z,33.70
2018-02-03T08:05:07.852Z,34.50
2018-02-03T08:06:07.918Z,33.30
2018-02-03T08:07:07.794Z,33.10
2018-02-03T08:08:07.829Z,33.90
2018-02-03T08:09:07.718Z,33.20
2018-02-03T08:10:07.741Z,33.50
2018-02-03T08:11:07.661Z,33.90
2018-02-03T08:12:07.659Z,32.30
2018-02-03T08:13:07.602Z,31.30
2018-02-03T08:14:07.677Z,32.10
2018-02-03T08:15:07.549Z,31.30
2018-02-03T08:16:07.578Z,31.20
2018-02-03T08:17:07.477Z,32.40
2018-02-03T08:18:07.490Z,32.40
2018-02-03T08:19:07.419Z,30.70
2018-02-03T08:20:07.398Z,30.20
2018-02-03T08:21:07.357Z,29.70
2018-02-03T08:22:07.410Z,29.70
2018-02-03T08:23:07.285Z,30.10
2018-02-03T08:24:07.324Z,29.50
2018-02-03T08:25:07.233Z,29.90
2018-02-03T08:26:07.238Z,29.30
2018-02-03T08:27:07.171Z,28.30
2018-02-03T08:28:07.251Z,26.70
2018-02-03T08:29:07.111Z,27.30
2018-02-03T08:30:07.163Z,28.10
2018-02-03T08:31:07.066Z,27.40
2018-02-03T08:32:07.076Z,27.10
2018-02-03T08:33:06.988Z,27.90
2018-02-03T08:34:06.987Z,28.00
2018-02-03T08:35:06.928Z,26.30
2018-02-03T08:36:06.999Z,26.90
2018-02-03T08:37:06.865Z,26.80
2018-02-03T08:38:06.912Z,27.10
2018-02-03T08:39:06.807Z,26.90
2018-02-03T08:40:06.823Z,26.50
2018-02-03T08:41:06.745Z,27.20
2018-02-03T08:42:06.738Z,25.90
2018-02-03T08:43:06.681Z,26.80
2018-02-03T08:44:06.744Z,25.90
2018-02-03T08:45:06.624Z,25.20
2018-02-03T08:46:06.657Z,25.80
2018-02-03T08:47:06.561Z,24.60
2018-02-03T08:48:06.565Z,24.80
2018-02-03T08:49:06.495Z,23.70
2018-02-03T08:50:06.483Z,24.10
2018-02-03T08:51:06.449Z,24.30
2018-02-03T08:52:06.500Z,23.50
2018-02-03T08:53:06.375Z,23.70
2018-02-03T08:54:06.409Z,24.20
2018-02-03T08:55:06.335Z,23.00
2018-02-03T08:56:06.317Z,24.70
2018-02-03T08:57:06.259Z,24.30
2018-02-03T08:58:06.334Z,25.40
2018-02-03T08:59:06.197Z,24.10
2018-02-03T09:00:06.245Z,24.40
2018-02-03T09:01:06.133Z,24.80
2018-02-03T09:02:06.152Z,23.60
2018-02-03T09:03:06.072Z,24.30
2018-02-03T09:04:06.060Z,24.30
2018-02-03T09:05:06.015Z,23.90
2018-02-03T09:06:06.081Z,24.10
2018-02-03T09:07:05.953Z,24.10
2018-02-03T09:08:05.995Z,24.60
2018-02-03T09:09:05.895Z,24.20
2018-02-03T09:10:05.904Z,24.10
2018-02-03T09:11:05.824Z,24.40
2018-02-03T09:12:05.814Z,25.70
2018-02-03T09:13:05.768Z,25.10
2018-02-03T09:14:05.832Z,24.60
2018-02-03T09:15:05.715Z,25.70
2018-02-03T09:16:05.747Z,24.50
2018-02-03T09:17:05.650Z,25.50
2018-02-03T09:18:05.651Z,25.50
2018-02-03T09:19:05.586Z,26.10
2018-02-03T09:20:05.668Z,25.50
2018-02-03T09:21:05.529Z,26.10
2018-02-03T09:22:05.579Z,25.00
2018-02-03T09:23:05.468Z,25.20
2018-02-03T09:24:05.483Z,25.60
2018-02-03T09:25:05.407Z,25.10
2018-02-03T09:26:05.398Z,25.30
2018-02-03T09:27:05.348Z,25.70
2018-02-03T09:28:05.417Z,25.40
2018-02-03T09:29:05.337Z,24.90
2018-02-03T09:30:05.326Z,25.00
2018-02-03T09:31:05.233Z,24.90
2018-02-03T09:32:05.240Z,24.70
2018-02-03T09:33:05.178Z,24.30
2018-02-03T09:34:05.253Z,24.70
2018-02-03T09:35:05.113Z,25.20
2018-02-03T09:36:05.165Z,25.00
2018-02-03T09:37:05.056Z,22.50
2018-02-03T09:38:05.075Z,21.40
2018-02-03T09:39:05.008Z,22.10
2018-02-03T09:40:05.089Z,22.70
2018-02-03T09:41:04.956Z,20.80
2018-02-03T09:42:05.001Z,22.80
2018-02-03T09:43:04.905Z,19.40
2018-02-03T09:44:04.926Z,18.60
2018-02-03T09:45:04.858Z,19.00
2018-02-03T09:46:04.925Z,19.20
2018-02-03T09:47:04.813Z,20.00
2018-02-03T09:48:04.941Z,18.50
2018-02-03T09:49:04.773Z,17.40
2018-02-03T09:50:04.846Z,18.90
2018-02-03T09:51:04.727Z,17.60
2018-02-03T09:52:04.709Z,17.10
2018-02-03T09:53:04.700Z,17.00
2018-02-03T09:54:04.778Z,16.60
2018-02-03T09:55:04.653Z,16.30
2018-02-03T09:56:04.687Z,16.70
2018-02-03T09:57:04.614Z,17.10
2018-02-03T09:58:04.703Z,17.00
2018-02-03T09:59:04.574Z,16.50
2018-02-03T10:00:04.612Z,16.90
2018-02-03T10:01:04.535Z,16.60
2018-02-03T10:02:04.630Z,17.70
2018-02-03T10:03:04.513Z,17.60
2018-02-03T10:04:04.537Z,18.60
2018-02-03T10:05:04.465Z,17.30
2018-02-03T10:06:04.558Z,16.90
2018-02-03T10:07:04.427Z,16.80
2018-02-03T10:08:04.469Z,17.90
2018-02-03T10:09:04.395Z,17.50
2018-02-03T10:10:04.480Z,17.70
2018-02-03T10:11:04.347Z,17.40
2018-02-03T10:12:04.391Z,17.10
2018-02-03T10:13:04.308Z,16.50
2018-02-03T10:14:04.302Z,16.90
2018-02-03T10:15:04.324Z,16.70
2018-02-03T10:16:04.317Z,17.70
2018-02-03T10:17:04.223Z,17.10
2018-02-03T10:18:04.228Z,17.40
2018-02-03T10:19:04.179Z,16.40
2018-02-03T10:20:04.240Z,16.20
2018-02-03T10:21:04.134Z,16.00
2018-02-03T10:22:04.150Z,16.20
2018-02-03T10:23:04.104Z,15.70
2018-02-03T10:24:04.172Z,15.40
2018-02-03T10:25:04.045Z,16.20
2018-02-03T10:26:04.078Z,16.60
2018-02-03T10:27:03.997Z,16.50
2018-02-03T10:28:03.992Z,15.90
2018-02-03T10:29:03.953Z,16.60
2018-02-03T10:30:04.002Z,16.30
2018-02-03T10:31:03.897Z,16.70
2018-02-03T10:32:03.916Z,16.50
2018-02-03T10:33:03.851Z,17.20
2018-02-03T10:34:03.925Z,17.10
2018-02-03T10:35:03.793Z,17.60
2018-02-03T10:36:03.837Z,18.40
2018-02-03T10:37:03.752Z,18.10
2018-02-03T10:38:03.751Z,18.70
2018-02-03T10:39:03.703Z,19.00
2018-02-03T10:40:03.782Z,18.60
2018-02-03T10:41:03.650Z,18.50
2018-02-03T10:42:03.674Z,18.80
2018-02-03T10:43:03.598Z,19.30
2018-02-03T10:44:03.590Z,20.40
2018-02-03T10:45:03.547Z,20.40
2018-02-03T10:46:03.603Z,20.20
2018-02-03T10:47:03.496Z,20.50
2018-02-03T10:48:03.530Z,19.40
2018-02-03T10:49:03.442Z,20.50
2018-02-03T10:50:03.528Z,20.20
2018-02-03T10:51:03.394Z,20.30
2018-02-03T10:52:03.454Z,21.00
2018-02-03T10:53:03.388Z,21.20
2018-02-03T10:54:03.354Z,20.70
2018-02-03T10:55:03.307Z,21.40
2018-02-03T10:56:03.369Z,21.00
2018-02-03T10:57:03.235Z,21.90
2018-02-03T10:58:03.204Z,22.20
2018-02-03T10:59:03.178Z,21.30
2018-02-03T11:00:03.191Z,21.00
2018-02-03T11:01:03.127Z,21.70
2018-02-03T11:02:03.201Z,21.40
2018-02-03T11:03:03.070Z,21.80
2018-02-03T11:04:03.112Z,20.70
2018-02-03T11:05:03.162Z,21.50
2018-02-03T11:06:03.129Z,21.80
2018-02-03T11:07:02.961Z,22.60
2018-02-03T11:08:03.040Z,22.30
2018-02-03T11:09:02.908Z,22.20
2018-02-03T11:10:02.958Z,22.20
2018-02-03T11:11:02.852Z,23.00
2018-02-03T11:12:02.964Z,23.20
2018-02-03T11:13:02.797Z,22.60
2018-02-03T11:14:02.876Z,23.20
2018-02-03T11:15:02.752Z,22.80
2018-02-03T11:16:02.797Z,23.40
2018-02-03T11:17:02.688Z,24.40
2018-02-03T11:18:02.796Z,23.90
2018-02-03T11:19:02.635Z,22.50
2018-02-03T11:20:02.713Z,21.90
2018-02-03T11:21:02.578Z,21.10
2018-02-03T11:22:02.623Z,21.20
2018-02-03T11:23:02.518Z,21.30
2018-02-03T11:24:02.641Z,20.00
2018-02-03T11:25:02.471Z,20.50
2018-02-03T11:26:02.554Z,21.70
2018-02-03T11:27:02.413Z,21.70
2018-02-03T11:28:02.461Z,21.90
2018-02-03T11:29:02.358Z,21.80
2018-02-03T11:30:02.475Z,21.60
2018-02-03T11:31:02.301Z,21.90
2018-02-03T11:32:02.391Z,21.10
2018-02-03T11:33:02.250Z,21.10
2018-02-03T11:34:02.300Z,20.90
2018-02-03T11:35:02.192Z,21.00
2018-02-03T11:36:02.311Z,21.10
2018-02-03T11:37:02.138Z,21.00
2018-02-03T11:38:02.223Z,21.90
2018-02-03T11:39:02.079Z,20.70
2018-02-03T11:40:02.143Z,21.60
2018-02-03T11:41:02.025Z,21.50
2018-02-03T11:42:02.151Z,21.90
2018-02-03T11:43:01.996Z,21.60
2018-02-03T11:44:02.062Z,21.10
2018-02-03T11:45:01.939Z,21.00
2018-02-03T11:46:03.018Z,21.80
2018-02-03T11:47:01.884Z,22.20
2018-02-03T11:48:02.034Z,21.80
2018-02-03T11:49:01.812Z,22.10
2018-02-03T11:50:01.900Z,19.90
2018-02-03T11:51:01.748Z,19.40
2018-02-03T11:52:01.808Z,18.50
2018-02-03T11:53:01.693Z,19.40
2018-02-03T11:54:01.821Z,18.10
2018-02-03T11:55:01.638Z,17.60
2018-02-03T11:56:01.733Z,17.30
2018-02-03T11:57:01.580Z,17.50
2018-02-03T11:58:01.644Z,17.10
2018-02-03T11:59:01.523Z,16.90
2018-02-03T12:00:01.660Z,16.60
2018-02-03T12:01:01.472Z,17.00
2018-02-03T12:02:01.574Z,16.40
2018-02-03T12:03:01.413Z,16.00
2018-02-03T12:04:01.483Z,16.50
2018-02-03T12:05:01.356Z,15.70
2018-02-03T12:06:01.464Z,15.10
2018-02-03T12:07:01.323Z,15.20
2018-02-03T12:08:01.409Z,15.30
2018-02-03T12:09:01.242Z,15.00
2018-02-03T12:10:01.317Z,15.10
2018-02-03T12:11:01.191Z,14.90
2018-02-03T12:12:01.406Z,13.10
2018-02-03T12:13:01.132Z,14.20
2018-02-03T12:14:01.247Z,14.60
2018-02-03T12:15:01.074Z,13.20
2018-02-03T12:16:01.157Z,13.70
2018-02-03T12:17:01.021Z,13.40
2018-02-03T12:18:01.171Z,14.50
2018-02-03T12:19:00.963Z,13.50
2018-02-03T12:20:01.085Z,13.20
2018-02-03T12:21:00.926Z,13.70
2018-02-03T12:22:00.995Z,13.70
2018-02-03T12:23:00.852Z,14.30
2018-02-03T12:24:01.007Z,13.80
2018-02-03T12:25:00.797Z,13.10
2018-02-03T12:26:00.919Z,13.20
2018-02-03T12:27:00.742Z,13.40
2018-02-03T12:28:00.831Z,13.90
2018-02-03T12:29:00.688Z,13.30
2018-02-03T12:30:00.853Z,13.50
2018-02-03T12:31:00.648Z,12.70
2018-02-03T12:32:01.309Z,13.50
2018-02-03T12:33:00.582Z,13.00
2018-02-03T12:34:00.676Z,13.70
2018-02-03T12:35:00.516Z,12.30
2018-02-03T12:36:00.604Z,13.50
2018-02-03T12:37:00.461Z,12.70
2018-02-03T12:38:00.439Z,13.50
2018-02-03T12:39:00.503Z,13.40
2018-02-03T12:40:00.376Z,13.20
2018-02-03T12:41:00.414Z,13.40
2018-02-03T12:42:00.328Z,13.00
2018-02-03T12:43:00.325Z,13.10
2018-02-03T12:44:00.288Z,14.30
2018-02-03T12:45:00.332Z,13.60
2018-02-03T12:46:00.212Z,14.30
2018-02-03T12:47:00.247Z,15.20
2018-02-03T12:48:00.164Z,15.80
2018-02-03T12:49:00.161Z,15.60
2018-02-03T12:50:00.306Z,15.10
2018-02-03T12:51:00.169Z,15.80
2018-02-03T12:52:00.039Z,16.70
2018-02-03T12:53:00.083Z,16.20
2018-02-03T12:53:59.987Z,15.80
2018-02-03T12:54:59.993Z,16.40
2018-02-03T12:55:59.931Z,18.70
2018-02-03T12:57:00.006Z,20.50
2018-02-03T12:57:59.878Z,18.90
2018-02-03T12:58:59.909Z,18.70
2018-02-03T12:59:59.821Z,19.20
2018-02-03T13:00:59.826Z,18.50
2018-02-03T13:01:59.774Z,19.60